createdAt,value
2018-04-18T00:00:20.903Z,63.96
2018-04-18T00:02:48.650Z,64.23
2018-04-18T00:05:16.107Z,64.29
2018-04-18T00:07:43.944Z,64.35
2018-04-18T00:10:11.428Z,64.56
2018-04-18T00:12:38.911Z,64.89
2018-04-18T00:15:06.417Z,64.63
2018-04-18T00:17:33.934Z,64.76
2018-04-18T00:20:01.434Z,65.15
2018-04-18T00:22:28.921Z,65.30
2018-04-18T00:24:56.407Z,65.60
2018-04-18T00:27:23.901Z,65.66
2018-04-18T00:29:51.395Z,65.78
2018-04-18T00:32:18.873Z,66.09
2018-04-18T00:34:46.341Z,65.93
2018-04-18T00:37:13.844Z,66.50
2018-04-18T00:39:41.394Z,66.68
2018-04-18T00:42:08.966Z,66.54
2018-04-18T00:44:36.467Z,66.60
2018-04-18T00:47:03.949Z,66.92
2018-04-18T00:49:31.459Z,67.04
2018-04-18T00:51:58.946Z,67.66
2018-04-18T00:54:26.432Z,67.81
2018-04-18T00:56:53.956Z,67.82
2018-04-18T00:59:21.494Z,68.10
2018-04-18T01:01:48.991Z,68.23
2018-04-18T01:04:16.465Z,68.28
2018-04-18T01:06:43.961Z,68.22
2018-04-18T01:09:11.645Z,68.09
2018-04-18T01:11:39.225Z,68.02
2018-04-18T01:14:06.900Z,68.12
2018-04-18T01:16:34.471Z,68.31
2018-04-18T01:19:02.161Z,68.05
2018-04-18T01:21:29.737Z,68.07
2018-04-18T01:23:57.292Z,68.06
2018-04-18T01:26:24.830Z,68.04
2018-04-18T01:28:52.364Z,68.33
2018-04-18T01:31:19.875Z,68.55
2018-04-18T01:33:47.455Z,68.76
2018-04-18T01:36:14.942Z,68.90
2018-04-18T01:38:42.426Z,68.85
2018-04-18T01:41:09.970Z,68.89
2018-04-18T01:43:37.516Z,68.95
2018-04-18T01:46:05.047Z,69.18
2018-04-18T01:48:32.634Z,69.40
2018-04-18T01:51:00.137Z,69.54
2018-04-18T01:53:27.727Z,70.06
2018-04-18T01:55:55.208Z,69.95
2018-04-18T01:58:22.720Z,69.80
2018-04-18T02:00:50.208Z,69.92
2018-04-18T02:03:17.758Z,69.87
2018-04-18T02:05:45.241Z,69.95
2018-04-18T02:08:12.719Z,69.85
2018-04-18T02:10:40.221Z,70.11
2018-04-18T02:13:07.828Z,70.33
2018-04-18T02:15:35.323Z,70.43
2018-04-18T02:18:02.801Z,70.38
2018-04-18T02:20:30.293Z,70.56
2018-04-18T02:22:57.810Z,70.24
2018-04-18T02:25:25.332Z,70.42
2018-04-18T02:27:53.012Z,70.83
2018-04-18T02:30:20.511Z,70.63
2018-04-18T02:32:48.036Z,70.71
2018-04-18T02:35:15.516Z,70.95
2018-04-18T02:37:43.039Z,70.91
2018-04-18T02:40:10.553Z,70.98
2018-04-18T02:42:38.056Z,71.30
2018-04-18T02:45:05.592Z,71.39
2018-04-18T02:47:33.085Z,71.71
2018-04-18T02:50:00.675Z,72.08
2018-04-18T02:52:28.183Z,71.38
2018-04-18T02:54:55.681Z,71.17
2018-04-18T02:57:23.197Z,71.43
2018-04-18T02:59:50.655Z,71.26
2018-04-18T03:02:18.140Z,71.53
2018-04-18T03:04:45.631Z,71.64
2018-04-18T03:07:13.129Z,71.89
2018-04-18T03:09:40.616Z,71.90
2018-04-18T03:12:08.126Z,72.23
2018-04-18T03:14:35.663Z,72.62
2018-04-18T03:17:03.125Z,72.85
2018-04-18T03:19:30.582Z,72.64
2018-04-18T03:21:58.086Z,72.62
2018-04-18T03:24:25.551Z,72.69
2018-04-18T03:26:53.041Z,73.01
2018-04-18T03:29:20.524Z,73.08
2018-04-18T03:31:48.000Z,73.09
2018-04-18T03:34:15.628Z,73.27
2018-04-18T03:36:43.215Z,73.32
2018-04-18T03:39:10.699Z,73.29
2018-04-18T03:41:38.181Z,73.23
2018-04-18T03:44:05.667Z,73.25
2018-04-18T03:46:33.179Z,73.44
2018-04-18T03:49:00.783Z,73.83
2018-04-18T03:51:28.269Z,73.87
2018-04-18T03:53:56.491Z,73.66
2018-04-18T03:56:23.987Z,73.53
2018-04-18T03:58:51.505Z,73.69
2018-04-18T04:01:18.980Z,74.05
2018-04-18T04:03:46.609Z,74.08
2018-04-18T04:06:14.098Z,74.30
2018-04-18T04:08:41.574Z,74.15
2018-04-18T04:11:09.081Z,74.23
2018-04-18T04:13:36.973Z,73.67
2018-04-18T04:16:04.461Z,73.87
2018-04-18T04:18:44.015Z,73.89
2018-04-18T04:21:23.370Z,73.89
2018-04-18T04:24:02.725Z,73.93
2018-04-18T04:26:30.230Z,74.02
2018-04-18T04:28:57.786Z,74.25
2018-04-18T04:31:25.272Z,73.77
2018-04-18T04:33:52.764Z,73.86
2018-04-18T04:36:20.257Z,73.58
2018-04-18T04:38:47.798Z,73.59
2018-04-18T04:41:15.336Z,73.13
2018-04-18T04:43:42.808Z,73.15
2018-04-18T04:46:10.481Z,72.99
2018-04-18T04:48:38.006Z,73.01
2018-04-18T04:51:05.504Z,72.98
2018-04-18T04:53:32.995Z,73.13
2018-04-18T04:56:00.485Z,72.97
2018-04-18T04:58:27.996Z,73.65
2018-04-18T05:00:55.479Z,73.01
2018-04-18T05:03:23.076Z,72.80
2018-04-18T05:05:50.580Z,72.79
2018-04-18T05:08:18.321Z,71.39
2018-04-18T05:10:45.863Z,72.31
2018-04-18T05:13:13.356Z,71.04
2018-04-18T05:15:40.875Z,71.83
2018-04-18T05:18:08.347Z,70.69
2018-04-18T05:20:35.835Z,70.64
2018-04-18T05:23:03.448Z,70.76
2018-04-18T05:25:30.993Z,70.72
2018-04-18T05:27:58.504Z,70.72
2018-04-18T05:30:26.343Z,70.60
2018-04-18T05:32:53.927Z,72.80
2018-04-18T05:35:21.409Z,69.75
2018-04-18T05:37:48.926Z,69.58
2018-04-18T05:40:16.426Z,69.66
2018-04-18T05:42:43.933Z,68.92
2018-04-18T05:45:11.493Z,68.91
2018-04-18T05:47:38.986Z,68.76
2018-04-18T05:50:06.775Z,68.49
2018-04-18T05:52:34.294Z,70.60
2018-04-18T05:55:01.770Z,66.91
2018-04-18T05:57:29.284Z,66.43
2018-04-18T05:59:56.809Z,66.30
2018-04-18T06:02:24.293Z,66.54
2018-04-18T06:04:51.781Z,66.46
2018-04-18T06:07:19.352Z,66.75
2018-04-18T06:09:47.055Z,66.01
2018-04-18T06:12:14.583Z,66.01
2018-04-18T06:14:42.212Z,65.64
2018-04-18T06:17:09.945Z,65.20
2018-04-18T06:19:41.477Z,65.14
2018-04-18T06:22:08.981Z,65.01
2018-04-18T06:24:36.552Z,64.63
2018-04-18T06:27:04.059Z,64.16
2018-04-18T06:29:31.534Z,63.67
2018-04-18T06:31:59.025Z,62.83
2018-04-18T06:34:26.611Z,62.87
2018-04-18T06:36:54.134Z,62.48
2018-04-18T06:39:21.991Z,62.07
2018-04-18T06:41:49.679Z,61.00
2018-04-18T06:44:17.224Z,60.73
2018-04-18T06:46:44.707Z,60.51
2018-04-18T06:49:12.270Z,60.51
2018-04-18T06:51:39.784Z,60.42
2018-04-18T06:54:07.262Z,59.97
2018-04-18T06:56:34.783Z,59.33
2018-04-18T06:59:02.278Z,59.43
2018-04-18T07:01:29.773Z,59.54
2018-04-18T07:03:57.263Z,58.89
2018-04-18T07:06:24.758Z,58.21
2018-04-18T07:08:52.430Z,57.29
2018-04-18T07:11:19.907Z,56.28
2018-04-18T07:13:47.388Z,56.43
2018-04-18T07:16:14.871Z,56.15
2018-04-18T07:18:42.419Z,55.77
2018-04-18T07:21:09.896Z,54.74
2018-04-18T07:23:37.449Z,54.24
2018-04-18T07:26:04.959Z,53.32
2018-04-18T07:28:32.455Z,52.29
2018-04-18T07:30:59.946Z,53.54
2018-04-18T07:33:27.459Z,51.53
2018-04-18T07:35:54.952Z,52.15
2018-04-18T07:38:22.457Z,52.62
2018-04-18T07:40:49.954Z,52.33
2018-04-18T07:43:17.857Z,52.09
2018-04-18T07:45:45.343Z,51.29
2018-04-18T07:48:12.846Z,51.07
2018-04-18T07:50:40.329Z,50.21
2018-04-18T07:53:07.834Z,50.27
2018-04-18T07:55:35.341Z,49.37
2018-04-18T07:58:02.831Z,47.78
2018-04-18T08:00:30.348Z,48.10
2018-04-18T08:02:57.824Z,47.03
2018-04-18T08:05:26.544Z,47.34
2018-04-18T08:07:54.171Z,46.31
2018-04-18T08:10:21.657Z,47.33
2018-04-18T08:12:49.206Z,46.71
2018-04-18T08:15:17.375Z,47.16
2018-04-18T08:17:44.852Z,47.36
2018-04-18T08:20:12.385Z,46.44
2018-04-18T08:22:39.863Z,46.40
2018-04-18T08:25:07.527Z,44.80
2018-04-18T08:27:35.052Z,44.64
2018-04-18T08:30:02.513Z,43.96
2018-04-18T08:32:29.995Z,41.83
2018-04-18T08:34:57.502Z,41.43
2018-04-18T08:37:25.000Z,41.38
2018-04-18T08:39:52.670Z,42.68
2018-04-18T08:42:20.157Z,41.27
2018-04-18T08:44:47.656Z,40.22
2018-04-18T08:47:15.643Z,39.77
2018-04-18T08:49:43.186Z,39.38
2018-04-18T08:52:10.661Z,36.76
2018-04-18T08:54:38.144Z,35.47
2018-04-18T08:57:05.631Z,36.09
2018-04-18T08:59:33.119Z,35.92
2018-04-18T09:02:00.602Z,37.44
2018-04-18T09:04:28.067Z,36.61
2018-04-18T09:06:55.574Z,36.00
2018-04-18T09:09:23.129Z,34.86
2018-04-18T09:11:50.608Z,32.77
2018-04-18T09:14:18.146Z,33.83
2018-04-18T09:16:45.629Z,33.00
2018-04-18T09:19:13.084Z,34.28
2018-04-18T09:21:40.574Z,31.39
2018-04-18T09:24:08.059Z,31.93
2018-04-18T09:26:35.531Z,31.29
2018-04-18T09:29:03.004Z,31.18
2018-04-18T09:31:30.509Z,32.54
2018-04-18T09:33:58.001Z,30.59
2018-04-18T09:36:25.548Z,31.54
2018-04-18T09:38:53.039Z,29.67
2018-04-18T09:41:20.595Z,29.05
2018-04-18T09:43:48.098Z,30.72
2018-04-18T09:46:16.335Z,29.31
2018-04-18T09:48:43.781Z,29.56
2018-04-18T09:51:11.245Z,30.70
2018-04-18T09:53:38.821Z,30.62
2018-04-18T09:56:06.315Z,29.24
2018-04-18T09:58:33.828Z,28.93
2018-04-18T10:01:01.480Z,28.94
2018-04-18T10:03:28.961Z,30.02
2018-04-18T10:05:56.456Z,28.32
2018-04-18T10:08:23.931Z,28.81
2018-04-18T10:10:51.652Z,29.07
2018-04-18T10:13:19.140Z,29.46
2018-04-18T10:15:46.780Z,27.74
2018-04-18T10:18:14.251Z,28.65
2018-04-18T10:20:41.739Z,28.88
2018-04-18T10:23:09.208Z,28.98
2018-04-18T10:25:36.700Z,29.01
2018-04-18T10:28:04.180Z,29.01
2018-04-18T10:30:31.692Z,27.44
2018-04-18T10:32:59.195Z,27.04
2018-04-18T10:35:26.682Z,27.48
2018-04-18T10:37:54.564Z,28.33
2018-04-18T10:40:22.053Z,26.34
2018-04-18T10:42:49.532Z,26.92
2018-04-18T10:45:17.605Z,26.87
2018-04-18T10:47:45.099Z,27.33
2018-04-18T10:50:12.575Z,27.64
2018-04-18T10:52:40.055Z,27.75
2018-04-18T10:55:07.749Z,26.94
2018-04-18T10:57:35.439Z,26.88
2018-04-18T11:00:02.978Z,27.65
2018-04-18T11:02:30.476Z,25.93
2018-04-18T11:04:57.995Z,27.27
2018-04-18T11:07:25.481Z,26.21
2018-04-18T11:09:52.985Z,26.71
2018-04-18T11:12:20.488Z,25.88
2018-04-18T11:14:48.017Z,26.04
2018-04-18T11:17:15.516Z,25.15
2018-04-18T11:19:43.038Z,24.77
2018-04-18T11:22:10.954Z,25.29
2018-04-18T11:24:38.500Z,25.02
2018-04-18T11:27:06.040Z,25.56
2018-04-18T11:29:33.549Z,25.97
2018-04-18T11:32:01.039Z,23.64
2018-04-18T11:34:28.507Z,24.03
2018-04-18T11:36:56.060Z,21.59
2018-04-18T11:39:23.529Z,21.51
2018-04-18T11:41:51.047Z,20.97
2018-04-18T11:44:18.588Z,21.04
2018-04-18T11:46:46.335Z,20.71
2018-04-18T11:49:13.878Z,20.43
2018-04-18T11:51:41.391Z,18.99
2018-04-18T11:54:08.867Z,18.80
2018-04-18T11:56:36.361Z,16.62
2018-04-18T11:59:03.852Z,17.10
2018-04-18T12:01:31.328Z,17.19
2018-04-18T12:03:58.832Z,17.12
2018-04-18T12:06:26.537Z,15.20
2018-04-18T12:08:54.005Z,15.30
2018-04-18T12:11:21.455Z,13.21
2018-04-18T12:13:49.141Z,13.54
2018-04-18T12:16:16.631Z,12.16
2018-04-18T12:18:44.112Z,10.55
2018-04-18T12:21:11.590Z,10.50
2018-04-18T12:23:39.151Z,11.39
2018-04-18T12:26:06.609Z,9.94
2018-04-18T12:28:34.106Z,9.54
2018-04-18T12:31:01.611Z,9.17
2018-04-18T12:33:29.204Z,9.94
2018-04-18T12:35:56.692Z,9.78
2018-04-18T12:38:24.240Z,8.97
2018-04-18T12:40:51.802Z,8.29
2018-04-18T12:43:19.317Z,8.77
2018-04-18T12:45:46.774Z,8.09
2018-04-18T12:48:14.270Z,7.80
2018-04-18T12:50:41.920Z,7.85
2018-04-18T12:53:09.426Z,7.85
2018-04-18T12:55:36.954Z,7.03
2018-04-18T12:58:04.609Z,6.66
2018-04-18T13:00:32.266Z,7.03
2018-04-18T13:02:59.765Z,6.78
2018-04-18T13:05:27.247Z,7.25
2018-04-18T13:07:54.886Z,6.78
2018-04-18T13:10:22.353Z,6.43
2018-04-18T13:12:49.841Z,6.38
2018-04-18T13:15:17.829Z,7.23
2018-04-18T13:17:45.302Z,7.30
2018-04-18T13:20:12.800Z,8.27
2018-04-18T13:22:40.262Z,7.51
2018-04-18T13:25:07.744Z,6.29
2018-04-18T13:27:35.314Z,6.46
2018-04-18T13:30:02.804Z,6.63
2018-04-18T13:32:30.324Z,6.34
2018-04-18T13:34:57.772Z,6.67
2018-04-18T13:37:25.259Z,7.72
2018-04-18T13:39:52.810Z,6.92
2018-04-18T13:42:20.312Z,7.67
2018-04-18T13:44:47.842Z,6.90
2018-04-18T13:47:15.366Z,6.50
2018-04-18T13:49:42.848Z,6.51
2018-04-18T13:52:10.335Z,6.54
2018-04-18T13:54:37.795Z,6.79
2018-04-18T13:57:05.250Z,7.52
2018-04-18T13:59:32.898Z,6.83
2018-04-18T14:02:00.393Z,6.55
2018-04-18T14:04:27.872Z,6.45
2018-04-18T14:06:55.352Z,6.86
2018-04-18T14:09:22.896Z,7.13
2018-04-18T14:11:50.382Z,7.01
2018-04-18T14:14:17.848Z,6.54
2018-04-18T14:16:45.352Z,6.50
2018-04-18T14:19:12.826Z,5.98
2018-04-18T14:21:40.323Z,6.06
2018-04-18T14:24:07.787Z,6.22
2018-04-18T14:26:35.312Z,6.43
2018-04-18T14:29:02.768Z,6.19
2018-04-18T14:31:30.223Z,6.03
2018-04-18T14:33:57.703Z,6.94
2018-04-18T14:36:25.160Z,6.61
2018-04-18T14:38:52.668Z,6.91
2018-04-18T14:41:20.144Z,7.21
2018-04-18T14:43:47.645Z,6.91
2018-04-18T14:46:15.223Z,6.37
2018-04-18T14:48:42.712Z,5.98
2018-04-18T14:51:10.178Z,6.25
2018-04-18T14:53:38.773Z,6.46
2018-04-18T14:56:06.317Z,6.42
2018-04-18T14:58:33.856Z,6.55
2018-04-18T15:01:01.344Z,6.64
2018-04-18T15:03:28.832Z,6.39
2018-04-18T15:05:56.317Z,7.06
2018-04-18T15:08:23.825Z,6.01
2018-04-18T15:10:51.399Z,6.41
2018-04-18T15:13:19.297Z,6.34
2018-04-18T15:15:46.779Z,6.32
2018-04-18T15:18:14.273Z,6.13
2018-04-18T15:20:41.766Z,5.99
2018-04-18T15:23:09.392Z,6.44
2018-04-18T15:25:43.354Z,6.69
2018-04-18T15:28:14.040Z,5.96
2018-04-18T15:30:42.096Z,6.15
2018-04-18T15:33:09.950Z,6.63
2018-04-18T15:35:38.830Z,6.26
2018-04-18T15:38:09.419Z,6.56
2018-04-18T15:40:37.154Z,6.77
2018-04-18T15:43:04.899Z,7.35
2018-04-18T15:45:32.413Z,7.30
2018-04-18T15:47:59.933Z,7.21
2018-04-18T15:50:27.618Z,7.20
2018-04-18T15:52:55.121Z,7.41
2018-04-18T15:55:22.690Z,7.52
2018-04-18T15:57:50.266Z,8.09
2018-04-18T16:00:17.753Z,7.86
2018-04-18T16:02:45.406Z,8.15
2018-04-18T16:05:13.041Z,7.87
2018-04-18T16:07:40.537Z,8.36
2018-04-18T16:10:08.134Z,8.02
2018-04-18T16:12:36.776Z,8.36
2018-04-18T16:15:04.354Z,8.01
2018-04-18T16:17:31.875Z,8.62
2018-04-18T16:19:59.688Z,7.88
2018-04-18T16:22:29.290Z,8.42
2018-04-18T16:24:56.796Z,8.54
2018-04-18T16:27:24.264Z,9.03
2018-04-18T16:29:51.727Z,9.10
2018-04-18T16:32:19.368Z,9.21
2018-04-18T16:34:47.410Z,9.64
2018-04-18T16:37:16.239Z,10.02
2018-04-18T16:39:43.695Z,9.56
2018-04-18T16:42:11.160Z,10.15
2018-04-18T16:44:38.661Z,10.30
2018-04-18T16:47:06.422Z,10.66
2018-04-18T16:49:33.898Z,10.61
2018-04-18T16:52:01.387Z,10.79
2018-04-18T16:54:28.900Z,10.78
2018-04-18T16:56:56.387Z,11.11
2018-04-18T16:59:23.842Z,11.23
2018-04-18T17:01:51.312Z,11.56
2018-04-18T17:04:18.832Z,11.96
2018-04-18T17:06:46.503Z,12.33
2018-04-18T17:09:14.527Z,12.95
2018-04-18T17:11:44.337Z,14.27
2018-04-18T17:14:11.904Z,15.13
2018-04-18T17:16:39.435Z,16.98
2018-04-18T17:19:07.282Z,18.73
2018-04-18T17:21:34.803Z,19.05
2018-04-18T17:24:02.529Z,20.19
2018-04-18T17:26:31.374Z,20.20
2018-04-18T17:28:58.963Z,20.17
2018-04-18T17:31:26.500Z,20.06
2018-04-18T17:33:54.055Z,19.60
2018-04-18T17:36:21.557Z,20.99
2018-04-18T17:38:49.021Z,21.05
2018-04-18T17:41:17.216Z,22.14
2018-04-18T17:43:44.701Z,23.26
2018-04-18T17:46:12.246Z,23.53
2018-04-18T17:48:39.757Z,23.75
2018-04-18T17:51:07.197Z,23.21
2018-04-18T17:53:34.722Z,23.51
2018-04-18T17:56:02.182Z,23.64
2018-04-18T17:58:29.661Z,24.07
2018-04-18T18:00:57.129Z,24.31
2018-04-18T18:03:24.669Z,24.55
2018-04-18T18:05:56.401Z,24.60
2018-04-18T18:08:26.736Z,24.58
2018-04-18T18:10:54.217Z,24.82
2018-04-18T18:13:21.739Z,24.94
2018-04-18T18:15:49.440Z,28.01
2018-04-18T18:18:17.134Z,25.52
2018-04-18T18:20:44.619Z,28.10
2018-04-18T18:23:12.209Z,30.33
2018-04-18T18:25:39.747Z,29.71
2018-04-18T18:28:07.270Z,26.97
2018-04-18T18:30:34.940Z,33.12
2018-04-18T18:33:02.511Z,29.22
2018-04-18T18:35:29.988Z,30.15
2018-04-18T18:37:59.727Z,28.18
2018-04-18T18:40:27.291Z,33.71
2018-04-18T18:42:54.769Z,33.87
2018-04-18T18:45:22.252Z,35.08
2018-04-18T18:47:49.719Z,34.73
2018-04-18T18:50:17.260Z,31.48
2018-04-18T18:52:44.738Z,33.94
2018-04-18T18:55:12.230Z,34.01
2018-04-18T18:57:39.737Z,34.06
2018-04-18T19:00:07.368Z,34.70
2018-04-18T19:02:34.824Z,34.74
2018-04-18T19:05:02.281Z,33.96
2018-04-18T19:07:29.797Z,34.93
2018-04-18T19:09:57.295Z,35.89
2018-04-18T19:12:24.796Z,32.84
2018-04-18T19:14:52.300Z,36.28
2018-04-18T19:17:19.853Z,35.85
2018-04-18T19:19:48.754Z,33.87
2018-04-18T19:22:17.102Z,34.71
2018-04-18T19:24:44.634Z,34.14
2018-04-18T19:27:12.111Z,36.43
2018-04-18T19:29:39.632Z,35.45
2018-04-18T19:32:07.103Z,36.37
2018-04-18T19:34:34.577Z,36.01
2018-04-18T19:37:02.073Z,37.28
2018-04-18T19:39:29.612Z,38.48
2018-04-18T19:41:57.186Z,36.73
2018-04-18T19:44:24.868Z,34.88
2018-04-18T19:46:52.667Z,34.64
2018-04-18T19:49:20.361Z,37.99
2018-04-18T19:51:47.853Z,38.41
2018-04-18T19:54:15.369Z,36.76
2018-04-18T19:56:42.853Z,37.83
2018-04-18T19:59:10.504Z,38.83
2018-04-18T20:01:38.818Z,36.56
2018-04-18T20:04:06.316Z,38.92
2018-04-18T20:06:33.870Z,36.80
2018-04-18T20:09:01.364Z,39.53
2018-04-18T20:11:28.828Z,39.62
2018-04-18T20:13:56.376Z,39.22
2018-04-18T20:16:24.037Z,43.53
2018-04-18T20:18:51.582Z,36.88
2018-04-18T20:21:19.069Z,39.44
2018-04-18T20:23:46.684Z,41.54
2018-04-18T20:26:14.249Z,42.95
2018-04-18T20:28:41.967Z,38.32
2018-04-18T20:31:09.464Z,42.58
2018-04-18T20:33:36.942Z,41.72
2018-04-18T20:36:04.414Z,34.88
2018-04-18T20:38:31.870Z,36.37
2018-04-18T20:40:59.374Z,41.29
2018-04-18T20:43:26.914Z,43.15
2018-04-18T20:45:54.669Z,43.42
2018-04-18T20:48:22.300Z,38.47
2018-04-18T20:50:49.822Z,35.76
2018-04-18T20:53:17.487Z,42.90
2018-04-18T20:55:46.231Z,40.68
2018-04-18T20:58:13.797Z,42.10
2018-04-18T21:00:41.348Z,44.89
2018-04-18T21:03:08.870Z,45.62
2018-04-18T21:05:36.489Z,42.88
2018-04-18T21:08:03.999Z,40.37
2018-04-18T21:10:31.498Z,44.53
2018-04-18T21:13:02.974Z,41.47
2018-04-18T21:15:31.103Z,41.94
2018-04-18T21:17:58.664Z,40.43
2018-04-18T21:20:27.168Z,42.93
2018-04-18T21:22:54.656Z,37.75
2018-04-18T21:25:22.182Z,42.33
2018-04-18T21:27:49.700Z,41.90
2018-04-18T21:30:17.188Z,41.98
2018-04-18T21:32:45.582Z,42.30
2018-04-18T21:35:13.060Z,40.58
2018-04-18T21:37:40.551Z,41.03
2018-04-18T21:40:08.048Z,41.47
2018-04-18T21:42:36.053Z,37.69
2018-04-18T21:45:03.786Z,40.27
2018-04-18T21:47:33.175Z,42.12
2018-04-18T21:50:00.757Z,42.73
2018-04-18T21:52:28.241Z,41.61
2018-04-18T21:54:55.711Z,43.56
2018-04-18T21:57:23.187Z,43.61
2018-04-18T21:59:50.682Z,42.16
2018-04-18T22:02:19.106Z,45.30
2018-04-18T22:04:46.594Z,43.83
2018-04-18T22:07:14.088Z,43.81
2018-04-18T22:09:41.581Z,44.46
2018-04-18T22:12:09.094Z,45.23
2018-04-18T22:14:36.574Z,42.72
2018-04-18T22:17:04.087Z,45.43
2018-04-18T22:19:31.561Z,44.74
2018-04-18T22:21:59.031Z,45.35
2018-04-18T22:24:26.535Z,44.85
2018-04-18T22:26:54.009Z,44.37
2018-04-18T22:29:21.507Z,42.31
2018-04-18T22:31:49.139Z,41.56
2018-04-18T22:34:16.606Z,45.74
2018-04-18T22:36:44.102Z,42.84
2018-04-18T22:39:11.739Z,41.65
2018-04-18T22:41:39.217Z,48.17
2018-04-18T22:44:06.709Z,42.45
2018-04-18T22:46:34.249Z,47.06
2018-04-18T22:49:01.803Z,47.89
2018-04-18T22:51:29.269Z,42.26
2018-04-18T22:53:56.762Z,42.74
2018-04-18T22:56:24.356Z,48.94
2018-04-18T22:58:51.812Z,49.20
2018-04-18T23:01:19.289Z,45.52
2018-04-18T23:03:46.835Z,46.51
2018-04-18T23:06:14.312Z,47.06
2018-04-18T23:08:41.860Z,46.87
2018-04-18T23:11:09.347Z,48.45
2018-04-18T23:13:36.834Z,44.93
2018-04-18T23:16:04.318Z,43.73
2018-04-18T23:18:31.867Z,48.96
2018-04-18T23:20:59.339Z,46.57
2018-04-18T23:23:26.804Z,45.41
2018-04-18T23:25:54.262Z,45.42
2018-04-18T23:28:21.764Z,45.71
2018-04-18T23:30:49.258Z,46.79
2018-04-18T23:33:16.830Z,45.72
2018-04-18T23:35:44.407Z,45.87
2018-04-18T23:38:11.910Z,47.60
2018-04-18T23:40:39.412Z,50.07
2018-04-18T23:43:06.881Z,50.12
2018-04-18T23:45:34.358Z,49.41
2018-04-18T23:48:01.937Z,48.13
2018-04-18T23:50:29.446Z,47.18
2018-04-18T23:52:56.948Z,47.80
2018-04-18T23:55:24.492Z,49.50
2018-04-18T23:57:51.975Z,48.31
